Time;durP1;ratioP1;P1;durP2;ratioP2;P2;SDS_P1;SDS_P2;PMS_P1;PMS_P2;Temp;Humidity;BMP_temperature;BMP_pressure;BME280_temperature;BME280_humidity;BME280_pressure;Samples;Min_cycle;Max_cycle;Signal;HPM_P1;HPM_P2
2022/07/21 00:00:45;;;;;;;12.73;5.33;;;;;;;26.18;36.91;100491.97;20305197;28;100524;-72
2022/07/21 00:10:46;;;;;;;10.38;5.13;;;;;;;26.10;37.16;100505.13;20299603;28;97247;-72
2022/07/21 00:20:49;;;;;;;24.00;4.57;;;;;;;26.13;37.11;100515.47;20293564;28;100310;-72
2022/07/21 00:30:49;;;;;;;6.72;3.78;;;;;;;26.20;37.00;100516.53;20307905;28;100485;-71
2022/07/21 00:40:50;;;;;;;5.63;2.72;;;;;;;25.95;36.00;100523.34;20311269;28;98338;-73
2022/07/21 00:50:51;;;;;;;8.65;2.72;;;;;;;25.78;36.60;100517.84;20302410;28;97730;-73
2022/07/21 01:00:53;;;;;;;93.00;83.30;;;;;;;25.69;36.75;100514.22;20303662;28;97346;-72
2022/07/21 01:10:54;;;;;;;7.13;3.03;;;;;;;25.60;36.76;100507.16;20301268;28;97393;-70
2022/07/21 01:20:55;;;;;;;5.77;3.57;;;;;;;25.51;36.94;100522.13;20303331;28;98519;-71
2022/07/21 01:30:55;;;;;;;8.83;3.23;;;;;;;25.47;37.25;100518.09;20314311;28;97689;-71
2022/07/21 01:51:18;;;;;;;6.82;2.83;;;;;;;25.38;37.22;100511.84;20314237;28;98608;-71
2022/07/21 02:01:20;;;;;;;3.78;2.50;;;;;;;25.34;37.49;100513.09;20305815;28;98116;-71
2022/07/21 02:11:21;;;;;;;6.15;2.80;;;;;;;25.28;37.52;100516.31;20356988;28;97223;-71
2022/07/21 02:21:22;;;;;;;7.57;2.30;;;;;;;25.29;37.59;100520.59;20388514;28;100676;-71
2022/07/21 02:31:22;;;;;;;4.18;2.53;;;;;;;25.26;37.74;100512.94;20340239;28;99908;-71
2022/07/21 02:41:22;;;;;;;5.82;2.78;;;;;;;25.14;37.99;100517.56;20298062;28;98993;-71
2022/07/21 02:51:23;;;;;;;4.75;2.75;;;;;;;25.02;38.63;100524.00;20292247;28;98486;-72
2022/07/21 03:01:23;;;;;;;3.92;2.50;;;;;;;24.97;38.62;100527.06;20288850;28;100685;-72
2022/07/21 03:11:25;;;;;;;51.50;46.10;;;;;;;24.85;39.16;100526.41;20283071;28;101364;-71
2022/07/21 03:21:25;;;;;;;5.37;2.53;;;;;;;24.97;38.85;100524.41;20283064;28;97083;-71
2022/07/21 03:31:26;;;;;;;6.40;3.17;;;;;;;24.86;39.11;100524.56;20290246;28;100812;-71
2022/07/21 03:41:27;;;;;;;9.65;3.13;;;;;;;24.89;39.11;100530.44;20284970;28;97836;-71
2022/07/21 03:51:27;;;;;;;8.53;2.70;;;;;;;24.86;39.42;100528.03;20323553;28;99744;-71
2022/07/21 04:01:29;;;;;;;3.80;2.38;;;;;;;24.87;39.20;100536.84;20283801;28;98108;-71
2022/07/21 04:11:32;;;;;;;4.93;2.43;;;;;;;24.78;39.40;100549.13;20308655;28;98385;-71
2022/07/21 04:21:33;;;;;;;6.20;3.00;;;;;;;24.80;39.53;100551.63;20288853;28;103531;-70
2022/07/21 04:31:33;;;;;;;7.55;3.00;;;;;;;24.80;39.59;100555.09;20294755;28;99323;-71
2022/07/21 04:41:34;;;;;;;6.57;2.85;;;;;;;24.92;39.41;100550.50;20320055;28;97827;-71
2022/07/21 04:51:35;;;;;;;6.77;2.63;;;;;;;24.92;39.31;100553.97;20366993;28;97834;-72
2022/07/21 05:01:37;;;;;;;5.57;2.58;;;;;;;25.03;39.13;100554.81;20364821;28;97220;-70
2022/07/21 05:11:37;;;;;;;8.80;3.10;;;;;;;25.08;39.01;100557.88;20370367;28;99074;-71
2022/07/21 05:21:38;;;;;;;15.00;7.70;;;;;;;25.13;39.20;100563.59;20346384;28;100805;-73
2022/07/21 05:31:38;;;;;;;8.98;2.72;;;;;;;25.15;39.27;100576.72;20378191;28;97242;-72
2022/07/21 05:41:38;;;;;;;9.27;2.45;;;;;;;25.21;38.96;100571.69;20358765;28;97622;-71
2022/07/21 05:51:39;;;;;;;9.43;3.20;;;;;;;25.30;38.83;100571.81;20366836;28;98385;-72
2022/07/21 06:01:39;;;;;;;8.98;2.63;;;;;;;25.41;38.19;100579.63;20358585;28;100472;-74
2022/07/21 06:11:40;;;;;;;9.52;2.85;;;;;;;25.53;38.59;100577.66;20396240;28;99263;-73
2022/07/21 07:21:40;;;;;;;11.45;3.53;;;;;;;26.13;38.85;100579.97;20583629;27;100245;-75
2022/07/21 07:31:40;;;;;;;9.07;3.70;;;;;;;26.19;38.60;100579.41;20573551;28;97791;-74
2022/07/21 07:41:42;;;;;;;7.27;3.37;;;;;;;26.32;38.33;100564.97;20581702;28;100077;-75
2022/07/21 07:51:42;;;;;;;7.90;3.25;;;;;;;26.39;37.88;100562.53;20578035;28;98743;-76
2022/07/21 08:01:43;;;;;;;8.67;3.10;;;;;;;26.47;37.73;100565.28;20581366;28;97288;-75
2022/07/21 08:11:46;;;;;;;7.82;3.28;;;;;;;26.54;37.24;100550.41;20588690;28;98768;-76
2022/07/21 08:21:46;;;;;;;36.47;27.05;;;;;;;26.65;36.61;100552.03;20511832;28;98364;-76
2022/07/21 08:31:47;;;;;;;23.42;16.20;;;;;;;26.77;36.65;100544.69;20498823;28;101361;-76
2022/07/21 08:41:48;;;;;;;12.02;9.50;;;;;;;26.85;36.60;100536.78;20513792;28;98232;-75
2022/07/21 08:51:52;;;;;;;8.77;7.27;;;;;;;26.91;36.56;100535.34;20499132;28;97667;-76
2022/07/21 09:01:52;;;;;;;6.57;4.38;;;;;;;26.97;35.43;100514.28;20505051;28;98730;-75
2022/07/21 09:11:53;;;;;;;6.18;3.50;;;;;;;27.05;35.66;100510.03;20507506;28;101742;-78
2022/07/21 09:21:56;;;;;;;7.15;3.22;;;;;;;27.11;34.97;100504.09;20502068;28;98059;-76
2022/07/21 09:32:11;;;;;;;6.20;3.58;;;;;;;27.16;35.16;100491.19;20494226;28;97599;-76
2022/07/21 09:42:35;;;;;;;10.02;3.83;;;;;;;27.26;35.45;100483.13;20506039;28;99297;-76
2022/07/21 09:52:41;;;;;;;5.32;3.05;;;;;;;27.37;34.97;100463.38;20510164;28;100114;-77
2022/07/21 10:02:43;;;;;;;4.18;2.90;;;;;;;27.54;34.17;100453.69;20512429;28;98097;-77
2022/07/21 10:12:45;;;;;;;5.93;3.10;;;;;;;27.64;33.50;100454.41;20513999;28;101497;-77
2022/07/21 10:23:10;;;;;;;5.07;3.00;;;;;;;27.75;33.30;100442.66;20547122;28;98408;-77
2022/07/21 10:33:12;;;;;;;26.33;23.40;;;;;;;27.82;33.42;100438.34;20569047;28;101265;-77
2022/07/21 10:43:14;;;;;;;5.85;3.00;;;;;;;27.96;32.71;100426.22;20559570;28;98626;-78
2022/07/21 10:53:17;;;;;;;6.18;3.03;;;;;;;28.12;32.55;100420.13;20548212;28;97194;-77
2022/07/21 11:03:30;;;;;;;8.38;2.72;;;;;;;28.14;32.16;100404.00;20522465;28;100832;-77
2022/07/21 11:13:59;;;;;;;6.32;2.92;;;;;;;28.16;32.58;100400.19;20529230;28;98631;-78
2022/07/21 11:23:59;;;;;;;6.15;2.90;;;;;;;28.25;32.34;100385.88;20537334;28;98962;-77
2022/07/21 11:34:00;;;;;;;6.75;3.03;;;;;;;28.29;32.42;100367.72;20537656;28;97786;-77
2022/07/21 11:44:01;;;;;;;4.97;3.25;;;;;;;28.38;32.19;100369.41;20539809;28;97188;-78
2022/07/21 11:54:02;;;;;;;5.55;3.13;;;;;;;28.43;32.30;100348.41;20545956;28;97117;-78
2022/07/21 12:04:02;;;;;;;9.15;3.55;;;;;;;28.50;32.74;100343.25;20552957;28;97699;-78
2022/07/21 12:14:02;;;;;;;3.22;2.90;;;;;;;28.63;31.87;100328.59;20567202;28;99700;-79
2022/07/21 12:24:03;;;;;;;4.30;3.33;;;;;;;28.66;31.30;100325.56;20554577;28;96812;-79
2022/07/21 12:34:15;;;;;;;9.35;3.13;;;;;;;28.72;31.22;100316.94;20562201;28;97766;-79
2022/07/21 12:44:17;;;;;;;5.70;2.90;;;;;;;28.79;30.75;100311.75;20566106;28;100912;-78
2022/07/21 12:54:17;;;;;;;3.97;2.88;;;;;;;28.87;30.37;100293.91;20561066;28;96994;-79
2022/07/21 13:04:18;;;;;;;5.50;2.75;;;;;;;28.89;30.24;100278.56;20574203;28;98614;-78
2022/07/21 13:14:18;;;;;;;8.18;3.05;;;;;;;28.92;30.44;100282.72;20552467;28;97720;-77
2022/07/21 13:24:19;;;;;;;6.60;3.07;;;;;;;28.99;29.89;100267.72;20536424;28;100110;-78
2022/07/21 13:34:19;;;;;;;3.72;2.58;;;;;;;29.06;30.10;100263.34;20515172;28;97800;-78
2022/07/21 13:44:20;;;;;;;8.02;3.20;;;;;;;29.14;29.94;100264.28;20513926;28;97770;-78
2022/07/21 13:54:20;;;;;;;5.95;2.80;;;;;;;29.17;29.83;100251.44;20514534;28;96890;-76
2022/07/21 14:04:22;;;;;;;4.68;2.90;;;;;;;29.22;29.97;100240.25;20514561;28;98483;-77
2022/07/21 14:14:25;;;;;;;7.72;2.45;;;;;;;29.27;29.66;100226.38;20488442;28;98866;-78
2022/07/21 14:34:45;;;;;;;8.10;2.70;;;;;;;29.27;28.08;100211.19;20518736;28;97799;-78
2022/07/21 14:44:46;;;;;;;4.53;2.30;;;;;;;29.26;29.46;100216.72;20494359;28;98683;-79
2022/07/21 14:54:46;;;;;;;7.25;2.83;;;;;;;29.24;30.37;100198.25;20503442;28;99537;-78
2022/07/21 15:04:47;;;;;;;4.32;2.40;;;;;;;29.23;31.00;100192.09;20497084;28;98498;-79
2022/07/21 15:14:48;;;;;;;5.53;2.63;;;;;;;29.26;31.18;100190.91;20508383;28;99520;-77
2022/07/21 15:24:48;;;;;;;39.53;33.03;;;;;;;29.32;32.16;100182.22;20503553;28;97715;-78
2022/07/21 15:34:48;;;;;;;32.65;27.25;;;;;;;29.35;31.75;100173.03;20512218;28;97752;-78
2022/07/21 15:44:49;;;;;;;39.38;31.77;;;;;;;29.35;32.12;100170.38;20510135;28;98665;-78
2022/07/21 15:54:50;;;;;;;38.97;26.70;;;;;;;29.31;32.82;100161.88;20491153;27;100800;-78
2022/07/21 16:04:50;;;;;;;29.17;24.27;;;;;;;29.29;32.82;100155.06;20602257;27;97747;-78
2022/07/21 16:14:51;;;;;;;26.85;21.42;;;;;;;29.23;33.35;100165.44;20696819;28;97697;-79
2022/07/21 16:24:51;;;;;;;26.27;19.17;;;;;;;29.21;34.73;100162.09;20664860;28;100991;-76
2022/07/21 16:34:52;;;;;;;22.40;16.90;;;;;;;29.21;35.54;100155.91;20677066;28;101808;-76
2022/07/21 16:44:53;;;;;;;20.15;15.82;;;;;;;29.21;34.74;100158.59;20689277;27;97590;-78
2022/07/21 16:54:53;;;;;;;16.80;13.55;;;;;;;29.19;35.60;100160.63;20689851;28;101228;-77
2022/07/21 17:04:54;;;;;;;20.27;13.68;;;;;;;29.18;36.23;100161.63;20675796;28;97316;-77
2022/07/21 17:14:54;;;;;;;16.98;11.43;;;;;;;29.15;37.20;100162.81;20708844;28;98655;-78
2022/07/21 17:24:55;;;;;;;17.77;11.07;;;;;;;29.15;37.69;100156.63;20695012;28;97898;-77
2022/07/21 17:34:55;;;;;;;14.45;11.07;;;;;;;29.11;37.66;100156.16;20666907;28;96936;-77
2022/07/21 17:44:56;;;;;;;249.90;135.75;;;;;;;29.09;38.52;100163.53;20665674;27;97048;-77
2022/07/21 17:54:57;;;;;;;112.55;58.72;;;;;;;29.07;38.10;100160.19;20668005;27;97510;-79
2022/07/21 18:04:58;;;;;;;97.10;52.10;;;;;;;29.05;38.31;100160.38;20670603;28;97740;-79
2022/07/21 18:15:00;;;;;;;78.53;42.38;;;;;;;29.03;38.52;100162.38;20669658;28;100848;-77
2022/07/21 18:25:02;;;;;;;58.17;34.13;;;;;;;28.99;38.51;100174.41;20675099;27;97564;-79
2022/07/21 18:35:03;;;;;;;45.63;26.63;;;;;;;28.98;38.58;100182.56;20676285;28;97262;-77
2022/07/21 18:45:04;;;;;;;45.45;24.45;;;;;;;28.97;39.24;100203.06;20655073;28;99295;-76
2022/07/21 18:55:07;;;;;;;9.60;4.13;;;;;;;29.08;32.28;100215.19;20635166;28;100927;-77
2022/07/21 19:05:09;;;;;;;10.00;3.30;;;;;;;29.19;31.86;100228.09;20640382;28;98994;-75
2022/07/21 19:15:09;;;;;;;6.72;2.88;;;;;;;29.21;30.56;100239.44;20666252;28;100927;-75
2022/07/21 19:25:10;;;;;;;6.20;2.55;;;;;;;29.22;30.23;100253.56;20668618;28;101667;-75
2022/07/21 19:35:11;;;;;;;7.90;2.47;;;;;;;29.18;30.30;100268.28;20654910;27;97215;-75
2022/07/21 19:45:13;;;;;;;6.30;2.38;;;;;;;29.17;30.42;100267.44;20667274;27;97116;-74
2022/07/21 19:55:14;;;;;;;9.20;2.65;;;;;;;29.13;31.53;100281.31;20660552;27;99533;-75
2022/07/21 20:05:14;;;;;;;8.10;2.58;;;;;;;29.09;31.21;100278.16;20657834;27;99545;-75
2022/07/21 20:15:15;;;;;;;4.90;2.47;;;;;;;29.07;30.45;100280.97;20667404;28;102857;-75
2022/07/21 20:25:15;;;;;;;5.82;2.67;;;;;;;29.04;30.28;100283.16;20674488;28;97211;-76
2022/07/21 20:35:18;;;;;;;4.70;2.30;;;;;;;29.00;30.16;100296.03;20672343;28;97169;-75
2022/07/21 20:45:18;;;;;;;4.90;2.50;;;;;;;28.99;29.56;100309.50;20667791;28;99548;-76
2022/07/21 20:55:19;;;;;;;9.45;2.10;;;;;;;28.96;29.82;100308.03;20656774;28;98943;-76
2022/07/21 21:05:19;;;;;;;6.00;2.30;;;;;;;28.93;29.57;100308.38;20656397;27;102859;-77
2022/07/21 21:15:20;;;;;;;5.07;2.20;;;;;;;28.92;29.72;100312.88;20660644;28;98774;-77
2022/07/21 21:25:20;;;;;;;2.78;2.00;;;;;;;28.89;29.92;100304.38;20667956;28;102107;-77
2022/07/21 21:35:21;;;;;;;5.55;2.22;;;;;;;28.87;30.00;100303.75;20671976;28;98046;-77
2022/07/21 21:45:22;;;;;;;4.38;2.40;;;;;;;28.82;29.55;100306.06;20665159;28;97022;-77
2022/07/21 21:55:23;;;;;;;2.40;2.00;;;;;;;28.77;29.28;100322.56;20658562;27;103153;-77
2022/07/21 22:05:23;;;;;;;5.65;2.10;;;;;;;28.70;29.10;100335.75;20664449;27;101331;-76
2022/07/21 22:15:24;;;;;;;5.20;2.40;;;;;;;28.62;29.46;100330.41;20663674;27;98528;-76
2022/07/21 22:25:24;;;;;;;5.20;2.33;;;;;;;28.54;29.73;100351.72;20660046;28;98985;-77
2022/07/21 22:35:25;;;;;;;11.15;4.22;;;;;;;28.42;29.78;100349.41;20613197;28;100461;-77
2022/07/21 22:45:33;;;;;;;3.85;2.85;;;;;;;28.30;30.35;100347.28;20596245;28;100148;-77
2022/07/21 22:55:34;;;;;;;5.63;2.30;;;;;;;28.19;29.59;100351.09;20583416;28;98247;-77
2022/07/21 23:05:35;;;;;;;6.10;2.10;;;;;;;28.16;28.96;100370.06;20568562;28;97432;-77
2022/07/21 23:15:36;;;;;;;4.43;2.47;;;;;;;28.10;29.29;100366.25;20567457;28;98639;-77
2022/07/21 23:25:37;;;;;;;;;;;;;;;28.04;29.40;100381.00;20553041;28;97913;-77
2022/07/21 23:35:38;;;;;;;2.70;2.22;;;;;;;27.97;29.26;100372.00;20564697;28;98555;-77
2022/07/21 23:45:38;;;;;;;3.13;2.10;;;;;;;27.88;29.13;100376.50;20563155;28;100542;-77
2022/07/21 23:55:39;;;;;;;6.35;2.25;;;;;;;27.77;29.86;100379.44;20564174;28;98195;-76
